createdAt,value
2017-10-02T00:00:37.318Z,14.00
2017-10-02T00:03:07.902Z,14.00
2017-10-02T00:05:38.265Z,14.00
2017-10-02T00:08:08.721Z,14.00
2017-10-02T00:10:42.129Z,14.00
2017-10-02T00:13:12.997Z,14.00
2017-10-02T00:15:43.234Z,13.90
2017-10-02T00:18:13.545Z,14.00
2017-10-02T00:20:43.753Z,13.90
2017-10-02T00:23:15.636Z,13.90
2017-10-02T00:25:45.936Z,13.90
2017-10-02T00:28:16.188Z,13.90
2017-10-02T00:30:47.354Z,13.90
2017-10-02T00:33:18.009Z,13.90
2017-10-02T00:35:51.474Z,13.90
2017-10-02T00:38:21.642Z,13.90
2017-10-02T00:40:52.141Z,13.90
2017-10-02T00:43:22.384Z,13.90
2017-10-02T00:45:52.727Z,13.90
2017-10-02T00:48:22.857Z,13.80
2017-10-02T00:50:53.390Z,13.90
2017-10-02T00:53:23.905Z,13.90
2017-10-02T00:55:54.146Z,13.90
2017-10-02T00:58:24.628Z,13.90
2017-10-02T01:00:55.086Z,13.90
2017-10-02T01:03:25.447Z,13.80
2017-10-02T01:05:55.776Z,13.80
2017-10-02T01:08:26.040Z,13.80
2017-10-02T01:10:56.418Z,13.80
2017-10-02T01:13:26.838Z,13.80
2017-10-02T01:15:57.932Z,13.80
2017-10-02T01:18:28.204Z,13.80
2017-10-02T01:20:58.418Z,13.80
2017-10-02T01:23:29.423Z,13.80
2017-10-02T01:25:59.469Z,13.80
2017-10-02T01:28:29.771Z,13.80
2017-10-02T01:31:00.008Z,13.80
2017-10-02T01:33:30.231Z,13.80
2017-10-02T01:36:01.869Z,13.80
2017-10-02T01:38:32.239Z,13.80
2017-10-02T01:41:02.483Z,13.70
2017-10-02T01:43:32.600Z,13.70
2017-10-02T01:46:03.024Z,13.70
2017-10-02T01:48:33.238Z,13.80
2017-10-02T01:51:04.321Z,13.70
2017-10-02T01:53:34.647Z,13.70
2017-10-02T01:56:04.878Z,13.70
2017-10-02T01:58:43.009Z,13.70
2017-10-02T02:01:14.490Z,13.70
2017-10-02T02:03:44.774Z,13.70
2017-10-02T02:06:14.889Z,13.70
2017-10-02T02:08:45.276Z,13.70
2017-10-02T02:11:15.720Z,13.70
2017-10-02T02:13:46.083Z,13.70
2017-10-02T02:16:17.006Z,13.70
2017-10-02T02:18:47.997Z,13.60
2017-10-02T02:21:18.250Z,13.60
2017-10-02T02:23:48.396Z,13.60
2017-10-02T02:26:18.802Z,13.60
2017-10-02T02:28:49.093Z,13.60
2017-10-02T02:31:19.310Z,13.60
2017-10-02T02:33:49.696Z,13.60
2017-10-02T02:36:20.802Z,13.60
2017-10-02T02:38:51.046Z,13.60
2017-10-02T02:41:21.494Z,13.60
2017-10-02T02:43:51.645Z,13.60
2017-10-02T02:46:22.040Z,13.60
2017-10-02T02:48:52.903Z,13.50
2017-10-02T02:51:23.213Z,13.50
2017-10-02T02:53:53.525Z,13.50
2017-10-02T02:56:24.510Z,13.50
2017-10-02T02:58:54.823Z,13.50
2017-10-02T03:01:25.227Z,13.50
2017-10-02T03:03:56.445Z,13.50
2017-10-02T03:06:26.624Z,13.50
2017-10-02T03:08:56.708Z,13.50
2017-10-02T03:11:27.965Z,13.50
2017-10-02T03:13:58.077Z,13.50
2017-10-02T03:16:28.400Z,13.50
2017-10-02T03:18:59.125Z,13.50
2017-10-02T03:21:29.513Z,13.50
2017-10-02T03:23:59.613Z,13.50
2017-10-02T03:26:29.709Z,13.50
2017-10-02T03:28:59.949Z,13.40
2017-10-02T03:31:30.262Z,13.40
2017-10-02T03:34:00.704Z,13.40
2017-10-02T03:36:31.075Z,13.40
2017-10-02T03:39:01.521Z,13.40
2017-10-02T03:41:32.226Z,13.30
2017-10-02T03:44:02.820Z,13.30
2017-10-02T03:46:33.128Z,13.40
2017-10-02T03:49:03.523Z,13.30
2017-10-02T03:51:33.942Z,13.30
2017-10-02T03:54:05.125Z,13.30
2017-10-02T03:56:35.234Z,13.30
2017-10-02T03:59:05.554Z,13.30
2017-10-02T04:01:35.752Z,13.30
2017-10-02T04:04:06.166Z,13.30
2017-10-02T04:06:36.591Z,13.30
2017-10-02T04:09:06.757Z,13.30
2017-10-02T04:11:37.022Z,13.30
2017-10-02T04:14:07.273Z,13.30
2017-10-02T04:16:37.761Z,13.30
2017-10-02T04:19:07.857Z,13.30
2017-10-02T04:21:38.207Z,13.30
2017-10-02T04:24:08.542Z,13.30
2017-10-02T04:26:38.724Z,13.30
2017-10-02T04:29:09.085Z,13.30
2017-10-02T04:31:39.288Z,13.30
2017-10-02T04:34:09.496Z,13.20
2017-10-02T04:36:39.761Z,13.20
2017-10-02T04:39:10.955Z,13.20
2017-10-02T04:41:41.233Z,13.20
2017-10-02T04:44:11.459Z,13.20
2017-10-02T04:46:42.386Z,13.20
2017-10-02T04:49:12.694Z,13.20
2017-10-02T04:51:42.841Z,13.20
2017-10-02T04:54:13.831Z,13.20
2017-10-02T04:56:44.275Z,13.20
2017-10-02T04:59:14.498Z,13.20
2017-10-02T05:01:44.582Z,13.20
2017-10-02T05:04:14.979Z,13.20
2017-10-02T05:06:45.498Z,13.20
2017-10-02T05:09:15.861Z,13.20
2017-10-02T05:11:46.154Z,13.20
2017-10-02T05:14:16.414Z,13.20
2017-10-02T05:16:47.227Z,13.20
2017-10-02T05:19:17.498Z,13.10
2017-10-02T05:21:47.798Z,13.20
2017-10-02T05:24:17.890Z,13.20
2017-10-02T05:26:48.064Z,13.20
2017-10-02T05:29:18.757Z,13.20
2017-10-02T05:31:49.016Z,13.20
2017-10-02T05:34:19.558Z,13.20
2017-10-02T05:36:49.925Z,13.20
2017-10-02T05:39:20.265Z,13.20
2017-10-02T05:41:50.484Z,13.20
2017-10-02T05:44:20.857Z,13.20
2017-10-02T05:46:51.861Z,13.20
2017-10-02T05:49:21.992Z,13.10
2017-10-02T05:51:52.615Z,13.20
2017-10-02T05:54:23.135Z,13.20
2017-10-02T05:56:53.507Z,13.10
2017-10-02T05:59:23.840Z,13.20
2017-10-02T06:01:55.246Z,13.20
2017-10-02T06:04:25.477Z,13.20
2017-10-02T06:06:55.699Z,13.20
2017-10-02T06:09:25.888Z,13.20
2017-10-02T06:11:56.912Z,13.20
2017-10-02T06:14:27.071Z,13.20
2017-10-02T06:16:57.176Z,13.20
2017-10-02T06:19:27.325Z,13.20
2017-10-02T06:21:57.674Z,13.20
2017-10-02T06:24:27.737Z,13.20
2017-10-02T06:26:57.902Z,13.20
2017-10-02T06:29:28.389Z,13.20
2017-10-02T06:31:58.420Z,13.20
2017-10-02T06:34:28.677Z,13.20
2017-10-02T06:36:58.978Z,13.20
2017-10-02T06:39:29.338Z,13.20
2017-10-02T06:42:00.461Z,13.20
2017-10-02T06:44:30.761Z,13.20
2017-10-02T06:47:01.014Z,13.20
2017-10-02T06:49:32.062Z,13.20
2017-10-02T06:52:02.149Z,13.20
2017-10-02T06:54:32.503Z,13.20
2017-10-02T06:57:02.794Z,13.20
2017-10-02T06:59:33.042Z,13.20
2017-10-02T07:02:03.486Z,13.20
2017-10-02T07:04:33.765Z,13.20
2017-10-02T07:07:05.157Z,13.20
2017-10-02T07:09:35.229Z,13.20
2017-10-02T07:12:05.519Z,13.20
2017-10-02T07:14:35.910Z,13.30
2017-10-02T07:17:06.209Z,13.30
2017-10-02T07:19:36.736Z,13.30
2017-10-02T07:22:07.054Z,13.30
2017-10-02T07:24:37.433Z,13.30
2017-10-02T07:27:08.541Z,13.30
2017-10-02T07:29:39.001Z,13.30
2017-10-02T07:32:09.333Z,13.30
2017-10-02T07:34:39.532Z,13.30
2017-10-02T07:37:10.348Z,13.30
2017-10-02T07:39:40.820Z,13.30
2017-10-02T07:42:11.130Z,13.30
2017-10-02T07:44:41.496Z,13.30
2017-10-02T07:47:11.925Z,13.30
2017-10-02T07:49:42.826Z,13.30
2017-10-02T07:52:13.382Z,13.30
2017-10-02T07:54:44.128Z,13.30
2017-10-02T07:57:14.594Z,13.30
2017-10-02T07:59:45.791Z,13.40
2017-10-02T08:02:17.384Z,13.40
2017-10-02T08:04:47.729Z,13.40
2017-10-02T08:07:18.948Z,13.40
2017-10-02T08:09:49.143Z,13.40
2017-10-02T08:12:19.601Z,13.40
2017-10-02T08:14:49.769Z,13.40
2017-10-02T08:17:20.222Z,13.50
2017-10-02T08:19:51.971Z,13.50
2017-10-02T08:22:22.435Z,13.50
2017-10-02T08:24:52.881Z,13.50
2017-10-02T08:27:23.831Z,13.50
2017-10-02T08:29:55.006Z,13.50
2017-10-02T08:32:25.203Z,13.50
2017-10-02T08:34:55.577Z,13.50
2017-10-02T08:37:25.889Z,13.50
2017-10-02T08:39:56.298Z,13.60
2017-10-02T08:42:26.560Z,13.50
2017-10-02T08:44:56.776Z,13.60
2017-10-02T08:47:27.177Z,13.60
2017-10-02T08:49:57.456Z,13.60
2017-10-02T08:52:27.851Z,13.60
2017-10-02T08:54:58.202Z,13.60
2017-10-02T08:57:28.631Z,13.60
2017-10-02T08:59:59.680Z,13.60
2017-10-02T09:02:30.020Z,13.60
2017-10-02T09:05:00.364Z,13.60
2017-10-02T09:07:30.741Z,13.70
2017-10-02T09:10:01.889Z,13.70
2017-10-02T09:12:32.326Z,13.70
2017-10-02T09:15:02.862Z,13.70
2017-10-02T09:17:33.090Z,13.80
2017-10-02T09:20:03.347Z,13.80
2017-10-02T09:22:33.747Z,13.80
2017-10-02T09:25:04.060Z,13.80
2017-10-02T09:27:34.357Z,13.90
2017-10-02T09:30:05.304Z,14.10
2017-10-02T09:32:35.634Z,14.10
2017-10-02T09:35:05.942Z,14.10
2017-10-02T09:37:36.981Z,14.10
2017-10-02T09:40:07.452Z,14.10
2017-10-02T09:42:37.839Z,14.10
2017-10-02T09:45:08.262Z,14.10
2017-10-02T09:47:38.482Z,14.10
2017-10-02T09:50:09.534Z,14.10
2017-10-02T09:52:39.988Z,14.10
2017-10-02T09:55:10.221Z,14.10
2017-10-02T09:57:40.404Z,14.10
2017-10-02T10:00:11.495Z,14.10
2017-10-02T10:02:41.882Z,14.10
2017-10-02T10:05:12.083Z,14.10
2017-10-02T10:07:42.603Z,14.10
2017-10-02T10:10:13.609Z,14.20
2017-10-02T10:12:43.953Z,14.20
2017-10-02T10:15:14.431Z,14.20
2017-10-02T10:17:44.875Z,14.20
2017-10-02T10:20:15.404Z,14.30
2017-10-02T10:22:46.423Z,14.40
2017-10-02T10:25:16.638Z,14.60
2017-10-02T10:27:46.987Z,14.70
2017-10-02T10:30:17.156Z,14.90
2017-10-02T10:32:48.264Z,15.20
2017-10-02T10:35:18.635Z,15.20
2017-10-02T10:37:48.942Z,15.20
2017-10-02T10:40:19.342Z,15.20
2017-10-02T10:42:49.717Z,15.30
2017-10-02T10:45:20.296Z,15.40
2017-10-02T10:47:50.567Z,15.40
2017-10-02T10:50:20.992Z,15.50
2017-10-02T10:52:51.364Z,15.60
2017-10-02T10:55:21.536Z,15.80
2017-10-02T10:57:52.486Z,16.00
2017-10-02T11:00:22.795Z,16.00
2017-10-02T11:02:54.162Z,16.10
2017-10-02T11:05:24.609Z,16.10
2017-10-02T11:07:54.898Z,16.10
2017-10-02T11:10:25.218Z,16.10
2017-10-02T11:12:55.434Z,16.10
2017-10-02T11:15:25.785Z,16.10
2017-10-02T11:17:56.060Z,16.20
2017-10-02T11:20:26.501Z,16.20
2017-10-02T11:22:56.745Z,16.20
2017-10-02T11:25:27.063Z,16.30
2017-10-02T11:27:57.081Z,16.30
2017-10-02T11:30:28.064Z,16.20
2017-10-02T11:32:58.430Z,16.10
2017-10-02T11:35:28.749Z,16.10
2017-10-02T11:37:58.842Z,16.10
2017-10-02T11:40:28.869Z,16.00
2017-10-02T11:43:00.132Z,16.10
2017-10-02T11:45:30.401Z,16.00
2017-10-02T11:48:00.817Z,16.00
2017-10-02T11:50:31.150Z,15.90
2017-10-02T11:53:01.736Z,15.80
2017-10-02T11:55:31.911Z,15.80
2017-10-02T11:58:02.276Z,15.70
2017-10-02T12:00:32.685Z,15.70
2017-10-02T12:03:03.107Z,15.70
2017-10-02T12:05:33.538Z,15.70
2017-10-02T12:08:05.560Z,15.60
2017-10-02T12:10:36.011Z,15.60
2017-10-02T12:13:06.370Z,15.60
2017-10-02T12:15:37.786Z,15.50
2017-10-02T12:18:08.322Z,15.50
2017-10-02T12:20:38.794Z,15.50
2017-10-02T12:23:09.123Z,15.50
2017-10-02T12:25:39.397Z,15.50
2017-10-02T12:28:09.895Z,15.50
2017-10-02T12:30:40.449Z,15.40
2017-10-02T12:33:10.745Z,15.40
2017-10-02T12:35:40.865Z,15.40
2017-10-02T12:38:11.218Z,15.40
2017-10-02T12:40:41.619Z,15.60
2017-10-02T12:43:12.065Z,15.90
2017-10-02T12:45:42.449Z,16.30
2017-10-02T12:48:12.795Z,16.80
2017-10-02T12:50:43.034Z,17.10
2017-10-02T12:53:14.205Z,17.40
2017-10-02T12:55:44.482Z,17.40
2017-10-02T12:58:14.844Z,17.60
2017-10-02T13:00:45.426Z,17.70
2017-10-02T13:03:15.987Z,17.70
2017-10-02T13:05:46.354Z,17.80
2017-10-02T13:08:16.742Z,17.80
2017-10-02T13:10:47.042Z,17.70
2017-10-02T13:13:17.166Z,17.60
2017-10-02T13:15:47.382Z,17.60
2017-10-02T13:18:17.726Z,17.60
2017-10-02T13:20:48.023Z,17.60
2017-10-02T13:23:18.338Z,17.50
2017-10-02T13:25:48.825Z,17.40
2017-10-02T13:28:19.227Z,17.40
2017-10-02T13:30:49.503Z,17.40
2017-10-02T13:33:19.768Z,17.40
2017-10-02T13:35:49.900Z,17.40
2017-10-02T13:38:20.312Z,17.50
2017-10-02T13:40:50.418Z,17.40
2017-10-02T13:43:20.774Z,17.40
2017-10-02T13:45:51.117Z,17.40
2017-10-02T13:48:21.454Z,17.30
2017-10-02T13:50:52.534Z,17.30
2017-10-02T13:53:22.928Z,17.30
2017-10-02T13:55:53.148Z,17.30
2017-10-02T13:58:24.424Z,17.30
2017-10-02T14:00:54.840Z,17.20
2017-10-02T14:03:25.272Z,17.30
2017-10-02T14:05:55.709Z,17.20
2017-10-02T14:08:25.977Z,17.20
2017-10-02T14:10:56.462Z,17.30
2017-10-02T14:13:27.034Z,17.30
2017-10-02T14:15:58.329Z,17.30
2017-10-02T14:18:28.810Z,17.30
2017-10-02T14:20:59.178Z,17.30
2017-10-02T14:23:29.533Z,17.30
2017-10-02T14:25:59.806Z,17.30
2017-10-02T14:28:30.298Z,17.30
2017-10-02T14:31:00.539Z,17.20
2017-10-02T14:33:30.897Z,17.20
2017-10-02T14:36:01.426Z,17.20
2017-10-02T14:38:31.802Z,17.30
2017-10-02T14:41:02.324Z,17.20
2017-10-02T14:43:33.239Z,17.20
2017-10-02T14:46:03.602Z,17.10
2017-10-02T14:48:34.209Z,17.10
2017-10-02T14:51:04.521Z,17.10
2017-10-02T14:53:34.932Z,17.10
2017-10-02T14:56:05.212Z,17.00
2017-10-02T14:58:35.519Z,17.00
2017-10-02T15:01:06.172Z,17.00
2017-10-02T15:03:37.374Z,17.00
2017-10-02T15:06:08.632Z,17.00
2017-10-02T15:08:38.919Z,16.90
2017-10-02T15:11:09.218Z,16.90
2017-10-02T15:13:40.313Z,17.00
2017-10-02T15:16:10.653Z,17.00
2017-10-02T15:18:41.640Z,16.90
2017-10-02T15:21:11.883Z,16.90
2017-10-02T15:23:42.226Z,16.90
2017-10-02T15:26:12.394Z,16.90
2017-10-02T15:28:42.733Z,16.90
2017-10-02T15:31:12.994Z,16.90
2017-10-02T15:33:43.391Z,16.80
2017-10-02T15:36:13.607Z,16.80
2017-10-02T15:38:43.961Z,16.80
2017-10-02T15:41:15.126Z,16.70
2017-10-02T15:43:45.594Z,16.70
2017-10-02T15:46:15.902Z,16.70
2017-10-02T15:48:47.064Z,16.70
2017-10-02T15:51:18.259Z,16.60
2017-10-02T15:53:48.461Z,16.60
2017-10-02T15:56:18.895Z,16.60
2017-10-02T15:58:49.433Z,16.60
2017-10-02T16:01:20.269Z,16.60
2017-10-02T16:03:52.216Z,16.50
2017-10-02T16:06:22.463Z,16.50
2017-10-02T16:08:52.895Z,16.50
2017-10-02T16:11:23.407Z,16.50
2017-10-02T16:13:53.825Z,16.50
2017-10-02T16:16:24.235Z,16.40
2017-10-02T16:18:55.625Z,16.40
2017-10-02T16:21:26.004Z,16.40
2017-10-02T16:23:56.303Z,16.40
2017-10-02T16:26:26.741Z,16.30
2017-10-02T16:28:57.022Z,16.30
2017-10-02T16:31:27.389Z,16.30
2017-10-02T16:33:57.797Z,16.30
2017-10-02T16:36:28.171Z,16.20
2017-10-02T16:38:58.333Z,16.20
2017-10-02T16:41:28.617Z,16.20
2017-10-02T16:43:58.926Z,16.10
2017-10-02T16:46:29.435Z,16.10
2017-10-02T16:48:59.884Z,16.10
2017-10-02T16:51:30.246Z,16.10
2017-10-02T16:54:00.587Z,16.00
2017-10-02T16:56:30.926Z,16.00
2017-10-02T16:59:01.389Z,16.00
2017-10-02T17:01:31.705Z,16.00
2017-10-02T17:04:01.993Z,16.00
2017-10-02T17:06:33.179Z,15.90
2017-10-02T17:09:03.689Z,15.90
2017-10-02T17:11:34.374Z,15.90
2017-10-02T17:14:06.303Z,15.80
2017-10-02T17:16:36.625Z,15.80
2017-10-02T17:19:06.830Z,15.80
2017-10-02T17:21:37.177Z,15.80
2017-10-02T17:24:07.567Z,15.80
2017-10-02T17:26:38.242Z,15.80
2017-10-02T17:29:08.782Z,15.80
2017-10-02T17:31:39.547Z,15.80
2017-10-02T17:34:09.741Z,15.70
2017-10-02T17:36:40.963Z,15.70
2017-10-02T17:39:11.297Z,15.70
2017-10-02T17:41:43.035Z,15.70
2017-10-02T17:44:15.304Z,15.70
2017-10-02T17:46:46.594Z,15.70
2017-10-02T17:49:16.956Z,15.70
2017-10-02T17:51:47.540Z,15.70
2017-10-02T17:54:17.920Z,15.60
2017-10-02T17:56:48.477Z,15.60
2017-10-02T17:59:18.734Z,15.60
2017-10-02T18:01:49.115Z,15.60
2017-10-02T18:04:19.277Z,15.60
2017-10-02T18:06:50.384Z,15.60
2017-10-02T18:09:20.804Z,15.60
2017-10-02T18:11:51.084Z,15.60
2017-10-02T18:14:21.437Z,15.50
2017-10-02T18:16:51.750Z,15.50
2017-10-02T18:19:22.175Z,15.50
2017-10-02T18:21:52.896Z,15.50
2017-10-02T18:24:23.283Z,15.40
2017-10-02T18:26:53.811Z,15.40
2017-10-02T18:29:24.335Z,15.40
2017-10-02T18:31:54.634Z,15.40
2017-10-02T18:34:25.141Z,15.40
2017-10-02T18:36:55.625Z,15.40
2017-10-02T18:39:26.718Z,15.30
2017-10-02T18:41:57.205Z,15.30
2017-10-02T18:44:28.393Z,15.30
2017-10-02T18:46:58.696Z,15.30
2017-10-02T18:49:29.155Z,15.30
2017-10-02T18:51:59.592Z,15.30
2017-10-02T18:54:29.948Z,15.30
2017-10-02T18:57:01.051Z,15.20
2017-10-02T18:59:31.550Z,15.20
2017-10-02T19:02:02.026Z,15.30
2017-10-02T19:04:32.411Z,15.20
2017-10-02T19:07:02.892Z,15.20
2017-10-02T19:09:33.356Z,15.20
2017-10-02T19:12:03.577Z,15.20
2017-10-02T19:14:33.944Z,15.20
2017-10-02T19:17:04.438Z,15.20
2017-10-02T19:19:34.809Z,15.20
2017-10-02T19:22:06.790Z,15.10
2017-10-02T19:24:36.995Z,15.10
2017-10-02T19:27:07.158Z,15.10
2017-10-02T19:29:37.914Z,15.10
2017-10-02T19:32:08.572Z,15.10
2017-10-02T19:34:39.036Z,15.00
2017-10-02T19:37:10.055Z,15.00
2017-10-02T19:39:41.269Z,14.90
2017-10-02T19:42:11.700Z,15.00
2017-10-02T19:44:42.197Z,14.90
2017-10-02T19:47:12.668Z,14.90
2017-10-02T19:49:45.235Z,14.90
2017-10-02T19:52:17.088Z,14.90
2017-10-02T19:54:47.520Z,14.90
2017-10-02T19:57:17.930Z,14.90
2017-10-02T19:59:48.158Z,14.90
2017-10-02T20:02:18.636Z,14.90
2017-10-02T20:04:49.064Z,14.80
2017-10-02T20:07:19.640Z,14.80
2017-10-02T20:09:49.935Z,14.80
2017-10-02T20:12:20.316Z,14.80
2017-10-02T20:14:50.830Z,14.80
2017-10-02T20:17:21.261Z,14.80
2017-10-02T20:19:51.829Z,14.70
2017-10-02T20:22:22.310Z,14.70
2017-10-02T20:24:52.956Z,14.80
2017-10-02T20:27:23.368Z,14.70
2017-10-02T20:29:53.713Z,14.80
2017-10-02T20:32:24.366Z,14.80
2017-10-02T20:34:54.615Z,14.80
2017-10-02T20:37:24.960Z,14.70
2017-10-02T20:39:55.128Z,14.70
2017-10-02T20:42:25.459Z,14.70
2017-10-02T20:44:55.787Z,14.70
2017-10-02T20:47:26.753Z,14.70
2017-10-02T20:49:56.957Z,14.70
2017-10-02T20:52:27.673Z,14.70
2017-10-02T20:54:58.873Z,14.70
2017-10-02T20:57:29.411Z,14.70
2017-10-02T21:00:00.666Z,14.70
2017-10-02T21:02:31.999Z,14.70
2017-10-02T21:05:02.437Z,14.70
2017-10-02T21:07:32.710Z,14.70
2017-10-02T21:10:03.434Z,14.70
2017-10-02T21:12:33.883Z,14.70
2017-10-02T21:15:04.299Z,14.60
2017-10-02T21:17:34.513Z,14.60
2017-10-02T21:20:04.892Z,14.60
2017-10-02T21:22:35.392Z,14.60
2017-10-02T21:25:05.691Z,14.60
2017-10-02T21:27:36.056Z,14.60
2017-10-02T21:30:07.349Z,14.60
2017-10-02T21:32:37.789Z,14.60
2017-10-02T21:35:08.961Z,14.60
2017-10-02T21:37:39.798Z,14.50
2017-10-02T21:40:10.129Z,14.60
2017-10-02T21:42:40.297Z,14.60
2017-10-02T21:45:10.670Z,14.60
2017-10-02T21:47:41.261Z,14.50
2017-10-02T21:50:11.613Z,14.50
2017-10-02T21:52:42.010Z,14.50
2017-10-02T21:55:12.262Z,14.50
2017-10-02T21:57:42.352Z,14.50
2017-10-02T22:00:12.713Z,14.50
2017-10-02T22:02:43.783Z,14.50
2017-10-02T22:05:14.782Z,14.50
2017-10-02T22:07:45.308Z,14.50
2017-10-02T22:10:15.595Z,14.40
2017-10-02T22:12:46.163Z,14.50
2017-10-02T22:15:16.477Z,14.50
2017-10-02T22:17:47.528Z,14.40
2017-10-02T22:20:17.942Z,14.40
2017-10-02T22:22:48.134Z,14.40
2017-10-02T22:25:18.667Z,14.40
2017-10-02T22:27:48.905Z,14.40
2017-10-02T22:30:19.370Z,14.40
2017-10-02T22:32:49.734Z,14.40
2017-10-02T22:35:21.054Z,14.30
2017-10-02T22:37:51.614Z,14.30
2017-10-02T22:40:22.736Z,14.30
2017-10-02T22:42:53.142Z,14.30
2017-10-02T22:45:23.438Z,14.30
2017-10-02T22:47:53.613Z,14.40
2017-10-02T22:50:24.082Z,14.30
2017-10-02T22:52:54.642Z,14.30
2017-10-02T22:55:24.773Z,14.30
2017-10-02T22:57:54.896Z,14.30
2017-10-02T23:00:25.288Z,14.30
2017-10-02T23:02:55.800Z,14.30
2017-10-02T23:05:26.017Z,14.30
2017-10-02T23:07:56.457Z,14.30
2017-10-02T23:10:27.108Z,14.30
2017-10-02T23:12:57.386Z,14.30
2017-10-02T23:15:28.519Z,14.20
2017-10-02T23:17:58.849Z,14.20
2017-10-02T23:20:29.148Z,14.20
2017-10-02T23:22:59.514Z,14.20
2017-10-02T23:25:29.731Z,14.20
2017-10-02T23:28:00.027Z,14.20
2017-10-02T23:30:30.230Z,14.20
2017-10-02T23:33:01.324Z,14.20
2017-10-02T23:35:31.504Z,14.20
2017-10-02T23:38:01.862Z,14.20
2017-10-02T23:40:33.049Z,14.20
2017-10-02T23:43:03.466Z,14.20
2017-10-02T23:45:33.758Z,14.20
2017-10-02T23:48:04.079Z,14.10
2017-10-02T23:50:34.329Z,14.10
2017-10-02T23:53:04.396Z,14.10
2017-10-02T23:55:34.700Z,14.10
2017-10-02T23:58:04.982Z,14.10
